createdAt,value
2017-10-31T00:02:12.469Z,11.23
2017-10-31T00:04:38.705Z,8.27
2017-10-31T00:07:04.877Z,7.40
2017-10-31T00:09:31.823Z,5.97
2017-10-31T00:11:58.753Z,7.97
2017-10-31T00:14:25.697Z,16.67
2017-10-31T00:16:51.897Z,7.43
2017-10-31T00:19:18.289Z,7.30
2017-10-31T00:21:45.217Z,7.40
2017-10-31T00:24:12.213Z,10.33
2017-10-31T00:26:38.473Z,7.83
2017-10-31T00:29:04.629Z,7.87
2017-10-31T00:31:30.839Z,8.90
2017-10-31T00:33:57.074Z,12.23
2017-10-31T00:36:23.281Z,6.90
2017-10-31T00:38:49.462Z,9.97
2017-10-31T00:41:15.661Z,6.97
2017-10-31T00:43:41.859Z,6.70
2017-10-31T00:46:08.055Z,6.27
2017-10-31T00:48:34.298Z,7.03
2017-10-31T00:51:00.473Z,12.63
2017-10-31T00:53:27.395Z,6.17
2017-10-31T00:55:53.749Z,6.03
2017-10-31T00:58:20.000Z,4.40
2017-10-31T01:00:46.949Z,11.23
2017-10-31T01:03:13.190Z,10.83
2017-10-31T01:05:40.117Z,5.60
2017-10-31T01:08:07.075Z,6.80
2017-10-31T01:10:34.022Z,5.63
2017-10-31T01:13:00.964Z,8.60
2017-10-31T01:15:27.201Z,7.00
2017-10-31T01:17:54.161Z,6.30
2017-10-31T01:20:20.400Z,8.13
2017-10-31T01:22:46.624Z,8.90
2017-10-31T01:25:12.813Z,5.07
2017-10-31T01:27:39.053Z,10.20
2017-10-31T01:30:05.239Z,7.10
2017-10-31T01:32:31.415Z,10.53
2017-10-31T01:34:57.666Z,4.77
2017-10-31T01:37:23.890Z,10.17
2017-10-31T01:39:50.101Z,3.73
2017-10-31T01:42:16.312Z,8.00
2017-10-31T01:44:43.246Z,3.50
2017-10-31T01:47:10.203Z,9.00
2017-10-31T01:49:36.381Z,5.73
2017-10-31T01:52:02.545Z,10.23
2017-10-31T01:54:28.743Z,6.00
2017-10-31T01:56:54.913Z,8.63
2017-10-31T01:59:21.130Z,12.83
2017-10-31T02:01:47.401Z,7.60
2017-10-31T02:04:14.330Z,8.53
2017-10-31T02:06:40.509Z,3.53
2017-10-31T02:09:06.715Z,6.77
2017-10-31T02:11:32.911Z,5.33
2017-10-31T02:13:59.122Z,12.50
2017-10-31T02:16:25.314Z,9.73
2017-10-31T02:18:51.542Z,6.53
2017-10-31T02:21:18.007Z,6.20
2017-10-31T02:23:44.943Z,6.73
2017-10-31T02:26:11.114Z,6.53
2017-10-31T02:28:37.378Z,6.53
2017-10-31T02:31:03.598Z,15.27
2017-10-31T02:33:29.794Z,3.27
2017-10-31T02:35:56.870Z,5.00
2017-10-31T02:38:23.059Z,6.93
2017-10-31T02:40:49.217Z,6.40
2017-10-31T02:43:16.126Z,12.40
2017-10-31T02:45:42.310Z,11.20
2017-10-31T02:48:08.483Z,9.23
2017-10-31T02:50:34.664Z,8.53
2017-10-31T02:53:01.587Z,12.87
2017-10-31T02:55:27.831Z,7.03
2017-10-31T02:57:53.997Z,7.03
2017-10-31T03:00:20.185Z,11.47
2017-10-31T03:02:46.390Z,8.40
2017-10-31T03:05:12.553Z,2.90
2017-10-31T03:07:38.753Z,15.17
2017-10-31T03:10:04.904Z,12.70
2017-10-31T03:12:31.082Z,5.57
2017-10-31T03:14:57.251Z,6.30
2017-10-31T03:17:23.404Z,5.50
2017-10-31T03:19:49.562Z,11.20
2017-10-31T03:22:15.870Z,8.30
2017-10-31T03:24:42.038Z,4.03
2017-10-31T03:27:08.191Z,10.17
2017-10-31T03:29:36.381Z,12.00
2017-10-31T03:32:03.289Z,6.50
2017-10-31T03:34:29.445Z,8.63
2017-10-31T03:36:57.088Z,5.50
2017-10-31T03:39:23.297Z,8.20
2017-10-31T03:41:49.544Z,5.83
2017-10-31T03:44:15.773Z,4.70
2017-10-31T03:46:41.993Z,8.57
2017-10-31T03:49:08.193Z,4.93
2017-10-31T03:51:35.162Z,10.60
2017-10-31T03:54:01.357Z,2.67
2017-10-31T03:56:28.998Z,3.13
2017-10-31T03:58:55.191Z,10.40
2017-10-31T04:01:21.369Z,4.60
2017-10-31T04:03:47.597Z,9.27
2017-10-31T04:06:13.834Z,6.60
2017-10-31T04:08:39.973Z,10.60
2017-10-31T04:11:06.125Z,4.60
2017-10-31T04:13:32.299Z,7.87
2017-10-31T04:15:58.446Z,6.60
2017-10-31T04:18:24.602Z,10.00
2017-10-31T04:20:50.793Z,7.20
2017-10-31T04:23:18.016Z,11.57
2017-10-31T04:25:44.176Z,9.03
2017-10-31T04:28:11.081Z,7.43
2017-10-31T04:30:40.072Z,6.77
2017-10-31T04:33:06.262Z,12.87
2017-10-31T04:35:32.445Z,7.83
2017-10-31T04:37:58.616Z,7.77
2017-10-31T04:40:25.546Z,6.20
2017-10-31T04:42:51.746Z,4.00
2017-10-31T04:45:17.937Z,10.47
2017-10-31T04:47:44.839Z,10.37
2017-10-31T04:50:11.028Z,12.53
2017-10-31T04:52:37.926Z,10.70
2017-10-31T04:55:04.109Z,9.70
2017-10-31T04:57:30.272Z,7.80
2017-10-31T04:59:56.426Z,9.93
2017-10-31T05:02:22.604Z,6.40
2017-10-31T05:04:49.695Z,4.67
2017-10-31T05:07:15.865Z,13.80
2017-10-31T05:09:42.032Z,5.80
2017-10-31T05:12:08.264Z,5.93
2017-10-31T05:14:35.145Z,10.33
2017-10-31T05:17:01.327Z,12.30
2017-10-31T05:19:28.337Z,8.17
2017-10-31T05:21:54.589Z,7.00
2017-10-31T05:24:20.956Z,7.77
2017-10-31T05:26:47.886Z,12.57
2017-10-31T05:29:14.032Z,9.20
2017-10-31T05:31:40.241Z,13.33
2017-10-31T05:34:06.405Z,10.83
2017-10-31T05:36:33.296Z,10.73
2017-10-31T05:38:59.478Z,19.87
2017-10-31T05:41:25.677Z,11.00
2017-10-31T05:43:51.857Z,12.00
2017-10-31T05:46:18.810Z,7.27
2017-10-31T05:48:47.457Z,11.07
2017-10-31T05:51:13.649Z,6.37
2017-10-31T05:53:39.805Z,8.03
2017-10-31T05:56:06.086Z,8.73
2017-10-31T05:58:32.240Z,7.37
2017-10-31T06:00:59.132Z,10.60
2017-10-31T06:03:25.301Z,9.33
2017-10-31T06:05:51.464Z,8.87
2017-10-31T06:08:17.649Z,10.10
2017-10-31T06:10:43.817Z,6.53
2017-10-31T06:13:10.712Z,10.00
2017-10-31T06:15:36.877Z,10.70
2017-10-31T06:18:03.054Z,8.10
2017-10-31T06:20:29.245Z,8.00
2017-10-31T06:23:02.435Z,9.53
2017-10-31T06:28:40.731Z,9.60
2017-10-31T06:31:13.176Z,11.57
2017-10-31T06:33:39.401Z,11.00
2017-10-31T06:36:05.588Z,7.80
2017-10-31T06:38:31.769Z,12.00
2017-10-31T06:40:57.950Z,10.00
2017-10-31T06:43:24.129Z,11.87
2017-10-31T06:45:50.328Z,12.40
2017-10-31T06:48:16.491Z,10.30
2017-10-31T06:50:43.417Z,15.03
2017-10-31T06:53:09.590Z,7.67
2017-10-31T06:55:35.759Z,15.33
2017-10-31T06:58:01.942Z,11.20
2017-10-31T07:00:28.837Z,11.63
2017-10-31T07:02:54.990Z,10.77
2017-10-31T07:05:21.181Z,9.83
2017-10-31T07:07:47.346Z,10.83
2017-10-31T07:10:13.538Z,8.17
2017-10-31T07:12:40.519Z,7.27
2017-10-31T07:15:06.685Z,7.07
2017-10-31T07:17:32.828Z,7.97
2017-10-31T07:19:59.006Z,10.27
2017-10-31T07:22:25.180Z,10.30
2017-10-31T07:24:52.132Z,12.67
2017-10-31T07:27:19.081Z,20.03
2017-10-31T07:29:45.254Z,15.40
2017-10-31T07:32:11.430Z,15.57
2017-10-31T07:34:37.685Z,14.33
2017-10-31T07:37:03.869Z,12.03
2017-10-31T07:39:30.063Z,8.00
2017-10-31T07:41:56.233Z,7.57
2017-10-31T07:44:22.385Z,7.20
2017-10-31T07:46:48.556Z,11.73
2017-10-31T07:49:15.473Z,8.07
2017-10-31T07:51:41.630Z,9.23
2017-10-31T07:54:07.811Z,8.47
2017-10-31T07:56:33.991Z,10.87
2017-10-31T07:59:00.174Z,9.40
2017-10-31T08:01:26.375Z,9.17
2017-10-31T08:03:53.302Z,6.93
2017-10-31T08:06:19.454Z,7.33
2017-10-31T08:08:45.628Z,8.37
2017-10-31T08:11:11.821Z,7.83
2017-10-31T08:13:38.048Z,8.83
2017-10-31T08:16:04.258Z,12.53
2017-10-31T08:18:30.480Z,12.07
2017-10-31T08:20:56.637Z,8.73
2017-10-31T08:23:22.855Z,11.23
2017-10-31T08:25:49.018Z,9.43
2017-10-31T08:28:15.258Z,9.00
2017-10-31T08:30:41.449Z,10.07
2017-10-31T08:33:07.621Z,8.97
2017-10-31T08:35:33.878Z,8.63
2017-10-31T08:38:00.060Z,8.40
2017-10-31T08:40:26.228Z,7.83
2017-10-31T08:42:52.386Z,5.97
2017-10-31T08:45:18.590Z,7.60
2017-10-31T08:47:44.832Z,5.87
2017-10-31T08:50:11.756Z,6.40
2017-10-31T08:52:37.935Z,10.80
2017-10-31T08:55:04.859Z,5.77
2017-10-31T08:57:31.021Z,5.73
2017-10-31T08:59:57.184Z,7.00
2017-10-31T09:02:23.404Z,11.73
2017-10-31T09:04:49.589Z,7.97
2017-10-31T09:07:15.777Z,6.20
2017-10-31T09:09:41.959Z,7.47
2017-10-31T09:12:08.863Z,7.20
2017-10-31T09:14:35.071Z,10.03
2017-10-31T09:17:02.045Z,4.53
2017-10-31T09:19:28.231Z,5.73
2017-10-31T09:21:54.385Z,6.63
2017-10-31T09:24:20.613Z,9.73
2017-10-31T09:26:47.505Z,7.93
2017-10-31T09:29:13.877Z,15.17
2017-10-31T09:31:40.904Z,17.73
2017-10-31T09:34:07.078Z,17.00
2017-10-31T09:36:33.326Z,9.17
2017-10-31T09:38:59.564Z,9.07
2017-10-31T09:41:26.080Z,11.53
2017-10-31T09:43:53.032Z,6.40
2017-10-31T09:46:19.242Z,11.80
2017-10-31T09:48:45.405Z,8.00
2017-10-31T09:51:11.600Z,8.73
2017-10-31T09:53:38.596Z,11.93
2017-10-31T09:56:05.494Z,7.90
2017-10-31T09:58:31.678Z,6.50
2017-10-31T10:00:58.630Z,6.10
2017-10-31T10:03:25.544Z,11.53
2017-10-31T10:05:51.704Z,10.20
2017-10-31T10:08:18.649Z,7.77
2017-10-31T10:10:44.849Z,8.70
2017-10-31T10:13:10.997Z,8.93
2017-10-31T10:15:37.962Z,9.53
2017-10-31T10:18:04.135Z,10.60
2017-10-31T10:20:30.289Z,4.83
2017-10-31T10:22:57.283Z,4.17
2017-10-31T10:25:23.452Z,9.50
2017-10-31T10:27:49.635Z,3.83
2017-10-31T10:30:15.891Z,14.83
2017-10-31T10:32:42.817Z,6.23
2017-10-31T10:35:08.990Z,9.10
2017-10-31T10:37:35.996Z,10.30
2017-10-31T10:40:02.166Z,4.90
2017-10-31T10:42:29.089Z,7.90
2017-10-31T10:44:55.382Z,7.37
2017-10-31T10:47:21.720Z,9.17
2017-10-31T10:49:47.870Z,3.63
2017-10-31T10:52:14.077Z,10.93
2017-10-31T10:54:41.418Z,9.10
2017-10-31T10:57:07.768Z,6.43
2017-10-31T10:59:34.747Z,8.90
2017-10-31T11:02:00.920Z,10.57
2017-10-31T11:04:27.165Z,8.67
2017-10-31T11:06:54.156Z,8.10
2017-10-31T11:09:20.366Z,12.90
2017-10-31T11:11:46.552Z,7.57
2017-10-31T11:14:12.804Z,10.77
2017-10-31T11:16:39.062Z,9.90
2017-10-31T11:19:05.986Z,9.60
2017-10-31T11:21:32.197Z,9.33
2017-10-31T11:23:59.145Z,11.03
2017-10-31T11:26:32.268Z,16.13
2017-10-31T11:28:58.465Z,18.20
2017-10-31T11:31:24.640Z,46.23
2017-10-31T11:33:50.845Z,67.83
2017-10-31T11:36:17.024Z,107.97
2017-10-31T11:38:43.377Z,91.97
2017-10-31T11:41:10.301Z,80.73
2017-10-31T11:43:37.229Z,49.20
2017-10-31T11:46:03.476Z,34.97
2017-10-31T11:48:30.598Z,46.07
2017-10-31T11:50:56.766Z,28.07
2017-10-31T11:53:23.052Z,25.77
2017-10-31T11:55:49.289Z,24.30
2017-10-31T11:58:15.452Z,17.03
2017-10-31T12:00:42.473Z,14.53
2017-10-31T12:03:08.703Z,16.83
2017-10-31T12:05:34.866Z,12.60
2017-10-31T12:08:01.045Z,7.73
2017-10-31T12:10:28.049Z,8.63
2017-10-31T12:12:55.067Z,6.60
2017-10-31T12:15:21.265Z,5.87
2017-10-31T12:17:47.632Z,9.83
2017-10-31T12:20:13.905Z,9.80
2017-10-31T12:22:40.125Z,6.00
2017-10-31T12:25:06.313Z,17.33
2017-10-31T12:27:32.489Z,10.60
2017-10-31T12:29:58.817Z,18.03
2017-10-31T12:32:24.981Z,10.07
2017-10-31T12:34:51.170Z,20.83
2017-10-31T12:37:18.210Z,21.53
2017-10-31T12:39:44.601Z,17.73
2017-10-31T12:42:10.810Z,14.13
2017-10-31T12:44:36.966Z,15.17
2017-10-31T12:47:03.985Z,11.73
2017-10-31T12:49:30.952Z,18.07
2017-10-31T12:51:57.104Z,13.80
2017-10-31T12:54:23.294Z,20.97
2017-10-31T12:56:50.190Z,9.33
2017-10-31T12:59:16.400Z,7.87
2017-10-31T13:01:42.658Z,14.80
2017-10-31T13:04:08.841Z,6.70
2017-10-31T13:06:35.754Z,14.17
2017-10-31T13:09:01.973Z,15.37
2017-10-31T13:11:28.214Z,10.93
2017-10-31T13:13:54.409Z,6.23
2017-10-31T13:16:21.337Z,11.20
2017-10-31T13:18:48.255Z,12.80
2017-10-31T13:21:14.461Z,11.83
2017-10-31T13:23:40.634Z,16.47
2017-10-31T13:26:09.707Z,24.53
2017-10-31T13:28:36.911Z,11.70
2017-10-31T13:31:04.061Z,9.20
2017-10-31T13:33:31.096Z,7.60
2017-10-31T13:35:59.888Z,9.23
2017-10-31T13:38:27.476Z,14.17
2017-10-31T13:40:55.532Z,10.00
2017-10-31T13:43:25.551Z,14.03
2017-10-31T13:45:51.721Z,7.97
2017-10-31T13:48:20.337Z,7.13
2017-10-31T13:50:47.074Z,11.77
2017-10-31T13:53:13.251Z,18.53
2017-10-31T13:55:39.412Z,28.83
2017-10-31T13:58:05.585Z,5.10
2017-10-31T14:00:32.429Z,9.67
2017-10-31T14:02:59.709Z,6.80
2017-10-31T14:05:26.000Z,12.60
2017-10-31T14:07:54.757Z,5.77
2017-10-31T14:10:21.889Z,6.97
2017-10-31T14:12:48.966Z,10.40
2017-10-31T14:15:15.991Z,11.63
2017-10-31T14:17:42.164Z,14.03
2017-10-31T14:20:10.520Z,8.57
2017-10-31T14:22:36.693Z,8.73
2017-10-31T14:25:03.605Z,9.23
2017-10-31T14:27:29.800Z,14.63
2017-10-31T14:29:57.597Z,11.57
2017-10-31T14:32:23.774Z,10.63
2017-10-31T14:34:50.699Z,7.90
2017-10-31T14:37:17.728Z,13.10
2017-10-31T14:39:43.904Z,6.43
2017-10-31T14:42:10.885Z,8.47
2017-10-31T14:44:37.805Z,9.27
2017-10-31T14:47:04.721Z,15.33
2017-10-31T14:49:30.870Z,8.97
2017-10-31T14:51:57.094Z,13.67
2017-10-31T14:54:23.294Z,9.47
2017-10-31T14:56:49.483Z,9.07
2017-10-31T14:59:15.712Z,7.10
2017-10-31T15:01:42.638Z,7.37
2017-10-31T15:04:08.857Z,8.23
2017-10-31T15:06:35.242Z,11.70
2017-10-31T15:09:01.508Z,9.23
2017-10-31T15:11:27.736Z,8.83
2017-10-31T15:13:54.008Z,16.13
2017-10-31T15:16:20.218Z,15.10
2017-10-31T15:18:46.438Z,11.30
2017-10-31T15:21:12.623Z,16.10
2017-10-31T15:23:38.862Z,16.53
2017-10-31T15:26:06.645Z,18.20
2017-10-31T15:28:32.829Z,9.77
2017-10-31T15:30:59.030Z,15.43
2017-10-31T15:33:25.937Z,9.77
2017-10-31T15:35:53.812Z,12.10
2017-10-31T15:38:20.011Z,11.60
2017-10-31T15:40:46.929Z,18.97
2017-10-31T15:43:13.915Z,11.97
2017-10-31T15:45:40.087Z,14.00
2017-10-31T15:48:07.148Z,13.80
2017-10-31T15:50:33.429Z,10.77
2017-10-31T15:52:59.658Z,12.50
2017-10-31T15:55:25.840Z,13.23
2017-10-31T15:57:52.038Z,16.97
2017-10-31T16:00:18.220Z,14.43
2017-10-31T16:02:44.397Z,8.50
2017-10-31T16:05:10.562Z,20.37
2017-10-31T16:07:36.745Z,15.97
2017-10-31T16:10:03.654Z,16.27
2017-10-31T16:12:29.828Z,22.77
2017-10-31T16:14:55.996Z,19.80
2017-10-31T16:17:22.188Z,19.10
2017-10-31T16:19:49.879Z,11.97
2017-10-31T16:22:16.792Z,9.33
2017-10-31T16:24:44.472Z,11.13
2017-10-31T16:27:10.693Z,15.13
2017-10-31T16:29:36.949Z,17.40
2017-10-31T16:32:03.858Z,18.83
2017-10-31T16:34:30.106Z,16.40
2017-10-31T16:36:57.065Z,15.30
2017-10-31T16:39:23.990Z,15.73
2017-10-31T16:41:50.279Z,17.10
2017-10-31T16:44:17.305Z,15.50
2017-10-31T16:46:43.475Z,16.17
2017-10-31T16:49:10.394Z,17.53
2017-10-31T16:51:38.060Z,23.17
2017-10-31T16:54:05.809Z,20.03
2017-10-31T16:56:32.035Z,21.33
2017-10-31T16:58:58.230Z,18.83
2017-10-31T17:01:25.176Z,22.13
2017-10-31T17:03:52.112Z,23.10
2017-10-31T17:06:18.349Z,17.40
2017-10-31T17:08:45.283Z,24.37
2017-10-31T17:11:11.480Z,25.97
2017-10-31T17:13:37.685Z,28.03
2017-10-31T17:16:03.905Z,24.57
2017-10-31T17:18:30.857Z,26.60
2017-10-31T17:20:57.782Z,25.93
2017-10-31T17:23:23.949Z,22.20
2017-10-31T17:25:51.773Z,29.40
2017-10-31T17:28:17.940Z,24.07
2017-10-31T17:30:44.849Z,27.87
2017-10-31T17:33:11.861Z,26.50
2017-10-31T17:35:38.060Z,30.57
2017-10-31T17:38:05.721Z,25.23
2017-10-31T17:40:33.432Z,23.73
2017-10-31T17:42:59.581Z,32.70
2017-10-31T17:45:25.831Z,28.33
2017-10-31T17:47:52.019Z,19.27
2017-10-31T17:50:18.924Z,29.13
2017-10-31T17:52:45.157Z,24.97
2017-10-31T17:55:13.843Z,25.13
2017-10-31T17:57:40.024Z,24.60
2017-10-31T18:00:06.969Z,26.17
2017-10-31T18:02:34.625Z,20.13
2017-10-31T18:05:00.937Z,24.73
2017-10-31T18:07:27.137Z,28.73
2017-10-31T18:09:53.300Z,30.17
2017-10-31T18:12:20.212Z,26.63
2017-10-31T18:14:47.141Z,27.03
2017-10-31T18:17:14.052Z,28.33
2017-10-31T18:19:40.261Z,25.20
2017-10-31T18:22:06.421Z,28.83
2017-10-31T18:24:45.160Z,28.50
2017-10-31T18:27:11.339Z,40.87
2017-10-31T18:29:38.132Z,23.97
2017-10-31T18:32:05.209Z,27.17
2017-10-31T18:34:32.118Z,28.77
2017-10-31T18:36:58.301Z,34.37
2017-10-31T18:39:26.133Z,25.97
2017-10-31T18:41:52.307Z,34.67
2017-10-31T18:44:18.492Z,42.60
2017-10-31T18:46:44.767Z,42.03
2017-10-31T18:49:11.712Z,38.33
2017-10-31T18:51:44.080Z,36.03
2017-10-31T18:54:10.288Z,35.73
2017-10-31T18:56:37.259Z,34.50
2017-10-31T18:59:03.493Z,37.33
2017-10-31T19:01:30.451Z,38.73
2017-10-31T19:03:56.650Z,37.93
2017-10-31T19:06:22.873Z,36.23
2017-10-31T19:08:49.862Z,47.57
2017-10-31T19:11:16.037Z,38.67
2017-10-31T19:13:42.225Z,43.73
2017-10-31T19:16:08.393Z,47.77
2017-10-31T19:18:34.630Z,40.97
2017-10-31T19:21:01.629Z,44.67
2017-10-31T19:23:40.549Z,39.40
2017-10-31T19:26:06.808Z,47.30
2017-10-31T19:28:33.064Z,48.53
2017-10-31T19:31:00.230Z,53.50
2017-10-31T19:33:27.204Z,45.03
2017-10-31T19:35:53.411Z,49.67
2017-10-31T19:38:20.341Z,52.27
2017-10-31T19:40:46.517Z,57.60
2017-10-31T19:43:12.716Z,50.97
2017-10-31T19:45:39.701Z,51.33
2017-10-31T19:48:05.949Z,53.27
2017-10-31T19:50:32.127Z,70.33
2017-10-31T19:52:59.067Z,53.07
2017-10-31T19:55:25.230Z,65.90
2017-10-31T19:57:52.145Z,49.73
2017-10-31T20:00:18.431Z,70.00
2017-10-31T20:02:44.650Z,53.53
2017-10-31T20:05:11.634Z,64.20
2017-10-31T20:07:37.857Z,59.30
2017-10-31T20:10:04.110Z,58.87
2017-10-31T20:12:30.269Z,56.93
2017-10-31T20:14:56.542Z,59.20
2017-10-31T20:17:22.796Z,58.87
2017-10-31T20:19:48.963Z,60.70
2017-10-31T20:22:15.201Z,59.90
2017-10-31T20:24:42.116Z,64.40
2017-10-31T20:27:08.299Z,61.53
2017-10-31T20:29:35.273Z,64.37
2017-10-31T20:32:01.643Z,69.57
2017-10-31T20:34:27.824Z,65.63
2017-10-31T20:36:53.981Z,88.93
2017-10-31T20:39:20.160Z,84.03
2017-10-31T20:41:46.404Z,61.83
2017-10-31T20:44:12.677Z,67.60
2017-10-31T20:46:39.624Z,71.20
2017-10-31T20:49:06.015Z,60.20
2017-10-31T20:51:33.089Z,75.27
2017-10-31T20:53:59.301Z,67.63
2017-10-31T20:56:25.429Z,64.20
2017-10-31T20:58:51.680Z,62.20
2017-10-31T21:01:17.835Z,72.77
2017-10-31T21:03:44.076Z,78.23
2017-10-31T21:06:10.990Z,77.20
2017-10-31T21:08:37.181Z,64.73
2017-10-31T21:11:03.381Z,78.10
2017-10-31T21:13:29.565Z,74.67
2017-10-31T21:15:55.749Z,70.90
2017-10-31T21:18:21.920Z,64.63
2017-10-31T21:20:48.911Z,81.03
2017-10-31T21:23:15.131Z,79.00
2017-10-31T21:25:41.292Z,71.80
2017-10-31T21:28:07.465Z,70.67
2017-10-31T21:30:34.377Z,75.03
2017-10-31T21:33:00.745Z,72.03
2017-10-31T21:35:27.655Z,89.40
2017-10-31T21:37:53.817Z,75.30
2017-10-31T21:40:20.767Z,71.60
2017-10-31T21:42:47.034Z,70.33
2017-10-31T21:45:13.221Z,67.83
2017-10-31T21:47:39.478Z,65.80
2017-10-31T21:50:06.571Z,75.37
2017-10-31T21:52:32.741Z,68.50
2017-10-31T21:54:59.688Z,83.23
2017-10-31T21:57:25.897Z,65.53
2017-10-31T21:59:52.093Z,66.87
2017-10-31T22:02:19.026Z,62.27
2017-10-31T22:04:45.950Z,64.40
2017-10-31T22:07:12.112Z,68.57
2017-10-31T22:09:39.023Z,70.37
2017-10-31T22:12:06.086Z,69.10
2017-10-31T22:14:32.264Z,65.63
2017-10-31T22:16:59.176Z,67.93
2017-10-31T22:19:25.390Z,61.83
2017-10-31T22:21:52.349Z,62.80
2017-10-31T22:24:18.501Z,67.17
2017-10-31T22:26:46.254Z,63.77
2017-10-31T22:29:12.449Z,63.27
2017-10-31T22:31:38.656Z,60.27
2017-10-31T22:34:04.888Z,64.13
2017-10-31T22:36:31.036Z,63.17
2017-10-31T22:38:57.962Z,61.60
2017-10-31T22:41:24.141Z,65.20
2017-10-31T22:43:50.326Z,64.60
2017-10-31T22:46:16.484Z,67.13
2017-10-31T22:48:42.701Z,66.70
2017-10-31T22:51:09.735Z,71.47
2017-10-31T22:53:35.903Z,64.17
2017-10-31T22:56:02.813Z,61.20
2017-10-31T22:58:29.004Z,68.70
2017-10-31T23:00:55.892Z,61.90
2017-10-31T23:03:22.934Z,67.77
2017-10-31T23:05:49.098Z,61.33
2017-10-31T23:08:15.273Z,60.50
2017-10-31T23:10:41.520Z,59.00
2017-10-31T23:13:07.699Z,58.50
2017-10-31T23:15:33.872Z,58.77
2017-10-31T23:18:00.824Z,61.43
2017-10-31T23:20:26.978Z,67.80
2017-10-31T23:22:53.134Z,59.10
2017-10-31T23:25:19.313Z,57.33
2017-10-31T23:27:46.242Z,63.93
2017-10-31T23:30:12.421Z,57.70
2017-10-31T23:32:38.589Z,55.83
2017-10-31T23:35:04.944Z,54.30
2017-10-31T23:37:31.104Z,56.50
2017-10-31T23:39:58.013Z,51.37
2017-10-31T23:42:24.212Z,44.40
2017-10-31T23:44:50.397Z,51.23
2017-10-31T23:47:16.560Z,49.90
2017-10-31T23:49:42.736Z,46.10
2017-10-31T23:52:09.061Z,43.70
2017-10-31T23:54:35.225Z,42.13
2017-10-31T23:57:01.384Z,46.40
2017-10-31T23:59:28.312Z,42.13
